Marco Polo — BR2031 — position and weather

sailwx.info

Track history (hours):
 
Tides and Currents Weather Stations Pressure Air Temp Water Temp Dewpoint Dewpoint Depression Visibility Wind Speed Wind Dir Waves Ship Positions

Marco Polo

Last reported at 2016-May-28 21:33 UTC. Time now 2016-May-28 22:11 UTC.
Position N 24°25' E 118°17'.

Length 32 m.

MMSI: 416000256.

Date/timePositionNaut miles runAvg speedWind from/ knotsBaromVisibWave heightAir tempDewpointWater temp
2016-May-28 21:33N 24°25' E 118°17'0 0.0
2016-May-28 20:33N 24°25' E 118°17'0 0.0
2016-May-28 19:33N 24°25' E 118°17'0 0.0
2016-May-28 18:33N 24°25' E 118°17'0 0.0
2016-May-28 17:33N 24°25' E 118°17'0 0.0
2016-May-28 16:32N 24°25' E 118°17'0 0.0
2016-May-28 15:28N 24°25' E 118°17'0 0.0
2016-May-28 14:33N 24°25' E 118°17'0 0.0
2016-May-28 10:31N 24°25' E 118°17'9 9.3
2016-May-28 09:33N 24°32' E 118°11'9 8.7
2016-May-28 08:32N 24°25' E 118°17'0 0.3
2016-May-28 07:33N 24°25' E 118°17'0 0.0
2016-May-28 06:33N 24°25' E 118°17'8 8.2
2016-May-28 05:33N 24°32' E 118°12'1 0.9
2016-May-28 04:33N 24°32' E 118°11'9 8.8
2016-May-28 03:33N 24°25' E 118°17'0 0.0
2016-May-28 02:33N 24°25' E 118°17'0 0.3
2016-May-28 01:14N 24°25' E 118°17'0 0.0
2016-May-28 00:31N 24°25' E 118°17'0 0.0
2016-May-27 23:19N 24°25' E 118°17'0 0.0
2016-May-27 22:31N 24°25' E 118°17'0 0.0
2016-May-27 21:21N 24°25' E 118°17'0 0.0
2016-May-27 20:31N 24°25' E 118°17'0 0.0
2016-May-27 19:24N 24°25' E 118°17'0 0.0
2016-May-27 18:25N 24°25' E 118°17'0 0.0
2016-May-27 17:30N 24°25' E 118°17'0 0.0
2016-May-27 16:29N 24°25' E 118°17'0 0.0
2016-May-27 10:06N 24°25' E 118°17'0 0.0
2016-May-27 09:32N 24°25' E 118°17'0 0.0
2016-May-27 08:32N 24°25' E 118°17'8 8.0
2016-May-27 07:33N 24°32' E 118°12'0 0.2
2016-May-27 06:33N 24°32' E 118°12'8 8.4
2016-May-27 05:32N 24°25' E 118°17'0 0.0
2016-May-27 04:32N 24°25' E 118°17'7 7.2
2016-May-27 03:33N 24°31' E 118°13'1 1.0
2016-May-27 02:33N 24°32' E 118°12'8 8.1
2016-May-27 01:33N 24°25' E 118°17'0 0.1
2016-May-27 00:32N 24°25' E 118°17'0 0.0
2016-May-26 23:33N 24°25' E 118°17'0 0.0
2016-May-26 22:33N 24°25' E 118°17'0 0.0
2016-May-26 21:30N 24°25' E 118°17'0 0.0
2016-May-26 20:33N 24°25' E 118°17'0 0.0
2016-May-26 19:33N 24°25' E 118°17'0 0.0
2016-May-26 18:32N 24°25' E 118°17'0 0.0
2016-May-26 17:33N 24°25' E 118°17'0 0.0
2016-May-26 16:34N 24°25' E 118°17'0 0.0
2016-May-26 15:33N 24°25' E 118°17'0 0.0
2016-May-26 10:31N 24°25' E 118°17'0 0.0
2016-May-26 09:33N 24°25' E 118°17'0 0.0
2016-May-26 08:33N 24°25' E 118°17'0 0.0
2016-May-26 07:33N 24°25' E 118°17'7 7.0
2016-May-26 06:33N 24°31' E 118°13'1 0.7
2016-May-26 05:33N 24°32' E 118°13'8 7.0
2016-May-26 04:27N 24°25' E 118°17'0 0.5
2016-May-26 03:30N 24°25' E 118°17'0 0.0
2016-May-26 02:07N 24°25' E 118°17'1 2.5
2016-May-26 01:33N 24°27' E 118°17'6 6.0
2016-May-26 00:33N 24°31' E 118°13'8 7.4
2016-May-25 23:32N 24°25' E 118°17'0 0.0
2016-May-25 22:33N 24°25' E 118°17'0 0.0
2016-May-25 21:33N 24°25' E 118°17'0 0.0
2016-May-25 20:34N 24°25' E 118°17'0 0.0
2016-May-25 19:33N 24°25' E 118°17'0 0.0
2016-May-25 18:33N 24°25' E 118°17'0 0.0
2016-May-25 17:33N 24°25' E 118°17'0 0.0
2016-May-25 16:33N 24°25' E 118°17'0 0.0
2016-May-25 15:33N 24°25' E 118°17'8 1.6
2016-May-25 10:31N 24°32' E 118°13'8 7.6
2016-May-25 09:29N 24°25' E 118°17'0 0.0
2016-May-25 08:33N 24°25' E 118°17'7 7.1
2016-May-25 07:33N 24°31' E 118°13'1 0.6
2016-May-25 06:33N 24°32' E 118°13'8 7.6
2016-May-25 05:33N 24°25' E 118°17'0 0.5
2016-May-25 04:32N 24°25' E 118°17'0 0.0
2016-May-25 03:31N 24°25' E 118°17'0 0.0
2016-May-25 02:22N 24°25' E 118°17'0 0.0
2016-May-25 01:24N 24°25' E 118°17'0 0.0
2016-May-24 22:27N 24°25' E 118°17'0 0.0
2016-May-24 21:33N 24°25' E 118°17'0 0.0
2016-May-24 20:32N 24°25' E 118°17'0 0.0
2016-May-24 19:33N 24°25' E 118°17'0 0.0
2016-May-24 18:29N 24°25' E 118°17'0 0.0
2016-May-24 16:14N 24°25' E 118°17'0 0.0
2016-May-24 09:31N 24°25' E 118°17'9 8.9
2016-May-24 08:32N 24°32' E 118°11'9 8.8
2016-May-24 07:31N 24°25' E 118°17'0 0.1
2016-May-24 06:33N 24°25' E 118°17'0 0.0
2016-May-24 05:33N 24°25' E 118°17'0 0.0
2016-May-24 04:33N 24°25' E 118°17'0 0.0
2016-May-24 03:33N 24°25' E 118°17'2 2.0
2016-May-24 02:33N 24°27' E 118°17'7 6.6
2016-May-24 01:33N 24°32' E 118°12'8 8.3
2016-May-24 00:33N 24°25' E 118°17'0 0.0
2016-May-23 23:29N 24°25' E 118°17'0 0.0
2016-May-23 22:33N 24°25' E 118°17'0 0.0
2016-May-23 21:32N 24°25' E 118°17'0 0.0
2016-May-23 20:33N 24°25' E 118°17'0 0.0
2016-May-23 19:32N 24°25' E 118°17'0 0.0
2016-May-23 18:33N 24°25' E 118°17'0 0.0
2016-May-23 17:33N 24°25' E 118°17'0 0.0
2016-May-23 16:32N 24°25' E 118°17'0 0.0
2016-May-23 15:33N 24°25' E 118°17'9 1.5
2016-May-23 09:32N 24°32' E 118°11'9 8.4
2016-May-23 08:30N 24°25' E 118°17'0 0.3
2016-May-23 07:33N 24°25' E 118°17'7 6.8
2016-May-23 06:33N 24°31' E 118°14'2 1.9
2016-May-23 05:33N 24°32' E 118°12'9 8.6
2016-May-23 04:33N 24°25' E 118°17'0 0.5
2016-May-23 03:32N 24°25' E 118°17'0 0.0
2016-May-23 02:31N 24°25' E 118°17'0 0.0
2016-May-23 01:30N 24°25' E 118°17'0 0.0
2016-May-23 00:32N 24°25' E 118°17'0 0.0
2016-May-22 23:33N 24°25' E 118°17'0 0.0
2016-May-22 22:31N 24°25' E 118°17'0 0.0
2016-May-22 21:29N 24°25' E 118°17'0 0.0
2016-May-22 20:32N 24°25' E 118°17'0 0.0
2016-May-22 19:33N 24°25' E 118°17'0 0.0
2016-May-22 18:33N 24°25' E 118°17'0 0.0
2016-May-22 17:32N 24°25' E 118°17'0 0.0
2016-May-22 16:32N 24°25' E 118°17'0 0.0
2016-May-22 15:32N 24°25' E 118°17'0 0.0
2016-May-22 14:33N 24°25' E 118°17'0 0.0
2016-May-22 08:25N 24°25' E 118°17'0 0.0
2016-May-22 07:29N 24°25' E 118°17'0 0.0
2016-May-22 06:31N 24°25' E 118°17'7 7.2
2016-May-22 05:34N 24°31' E 118°13'0 0.1
2016-May-22 04:33N 24°31' E 118°13'7 7.2
2016-May-22 03:33N 24°25' E 118°17'0 0.0
2016-May-22 02:31N 24°25' E 118°17'0 0.3
2016-May-22 01:33N 24°25' E 118°17'9 8.8
2016-May-22 00:34N 24°32' E 118°11'9 8.2
2016-May-21 23:27N 24°25' E 118°17'0 0.0
2016-May-21 22:26N 24°25' E 118°17'0 0.0
2016-May-21 21:27N 24°25' E 118°17'0 0.0
2016-May-21 20:10N 24°25' E 118°17'0 0.0
2016-May-21 19:18N 24°25' E 118°17'0 0.0
2016-May-21 18:33N 24°25' E 118°17'0 0.0
2016-May-21 17:33N 24°25' E 118°17'0 0.0
2016-May-21 16:32N 24°25' E 118°17'0 0.0
2016-May-21 15:33N 24°25' E 118°17'0 0.0
2016-May-21 14:34N 24°25' E 118°17'9 2.2
2016-May-21 10:30N 24°32' E 118°11'9 9.2
2016-May-21 09:33N 24°25' E 118°17'0 0.0
2016-May-21 04:33N 24°25' E 118°17'8 7.5
2016-May-21 03:34N 24°32' E 118°13'0 0.3
2016-May-21 02:33N 24°32' E 118°12'8 8.2
2016-May-21 01:33N 24°25' E 118°17'0 0.1
2016-May-21 00:33N 24°25' E 118°17'0 0.0
2016-May-20 23:32N 24°25' E 118°17'0 0.0
2016-May-20 22:33N 24°25' E 118°17'0 0.0
2016-May-20 21:33N 24°25' E 118°17'0 0.0
2016-May-20 20:33N 24°25' E 118°17'0 0.0
2016-May-20 19:33N 24°25' E 118°17'0 0.0
2016-May-20 18:32N 24°25' E 118°17'0 0.0
2016-May-20 17:33N 24°25' E 118°17'0 0.0
2016-May-20 16:33N 24°25' E 118°17'0 0.0
2016-May-20 15:33N 24°25' E 118°17'0 0.0
2016-May-20 14:33N 24°25' E 118°17'2 0.4
2016-May-20 09:33N 24°27' E 118°17'7 7.4
2016-May-20 08:34N 24°32' E 118°11'9 8.6
2016-May-20 07:31N 24°25' E 118°17'0 0.0
2016-May-20 06:33N 24°25' E 118°17'0 0.1
2016-May-20 05:33N 24°25' E 118°17'0 0.0
2016-May-20 04:32N 24°25' E 118°17'0 0.0
2016-May-20 03:31N 24°25' E 118°17'2 2.4
2016-May-20 02:33N 24°27' E 118°17'6 6.5
2016-May-20 01:33N 24°32' E 118°12'8 8.3
2016-May-20 00:33N 24°25' E 118°17'0 0.0
2016-May-19 23:22N 24°25' E 118°17'0 0.0
2016-May-19 22:29N 24°25' E 118°17'0 0.0
2016-May-19 21:33N 24°25' E 118°17'0 0.0
2016-May-19 20:33N 24°25' E 118°17'0 0.0
2016-May-19 18:26N 24°25' E 118°17'0 0.0
2016-May-19 17:30N 24°25' E 118°17'0 0.0
2016-May-19 16:31N 24°25' E 118°17'0 0.0
2016-May-19 15:29N 24°25' E 118°17'  
Track history (hours):
 
Tides and Currents Weather Stations Pressure Air Temp Water Temp Dewpoint Dewpoint Depression Visibility Wind Speed Wind Dir Waves Ship Positions

Marco Polo

Last reported at 2016-May-28 21:33 UTC. Time now 2016-May-28 22:11 UTC.
Position N 24°25' E 118°17'.

Length 32 m.

MMSI: 416000256.

Date/timePositionNaut miles runAvg speedWind from/ knotsBaromVisibWave heightAir tempDewpointWater temp
2016-May-28 21:33N 24°25' E 118°17'0 0.0
2016-May-28 20:33N 24°25' E 118°17'0 0.0
2016-May-28 19:33N 24°25' E 118°17'0 0.0
2016-May-28 18:33N 24°25' E 118°17'0 0.0
2016-May-28 17:33N 24°25' E 118°17'0 0.0
2016-May-28 16:32N 24°25' E 118°17'0 0.0
2016-May-28 15:28N 24°25' E 118°17'0 0.0
2016-May-28 14:33N 24°25' E 118°17'0 0.0
2016-May-28 10:31N 24°25' E 118°17'9 9.3
2016-May-28 09:33N 24°32' E 118°11'9 8.7
2016-May-28 08:32N 24°25' E 118°17'0 0.3
2016-May-28 07:33N 24°25' E 118°17'0 0.0
2016-May-28 06:33N 24°25' E 118°17'8 8.2
2016-May-28 05:33N 24°32' E 118°12'1 0.9
2016-May-28 04:33N 24°32' E 118°11'9 8.8
2016-May-28 03:33N 24°25' E 118°17'0 0.0
2016-May-28 02:33N 24°25' E 118°17'0 0.3
2016-May-28 01:14N 24°25' E 118°17'0 0.0
2016-May-28 00:31N 24°25' E 118°17'0 0.0
2016-May-27 23:19N 24°25' E 118°17'0 0.0
2016-May-27 22:31N 24°25' E 118°17'0 0.0
2016-May-27 21:21N 24°25' E 118°17'0 0.0
2016-May-27 20:31N 24°25' E 118°17'0 0.0
2016-May-27 19:24N 24°25' E 118°17'0 0.0
2016-May-27 18:25N 24°25' E 118°17'0 0.0
2016-May-27 17:30N 24°25' E 118°17'0 0.0
2016-May-27 16:29N 24°25' E 118°17'0 0.0
2016-May-27 10:06N 24°25' E 118°17'0 0.0
2016-May-27 09:32N 24°25' E 118°17'0 0.0
2016-May-27 08:32N 24°25' E 118°17'8 8.0
2016-May-27 07:33N 24°32' E 118°12'0 0.2
2016-May-27 06:33N 24°32' E 118°12'8 8.4
2016-May-27 05:32N 24°25' E 118°17'0 0.0
2016-May-27 04:32N 24°25' E 118°17'7 7.2
2016-May-27 03:33N 24°31' E 118°13'1 1.0
2016-May-27 02:33N 24°32' E 118°12'8 8.1
2016-May-27 01:33N 24°25' E 118°17'0 0.1
2016-May-27 00:32N 24°25' E 118°17'0 0.0
2016-May-26 23:33N 24°25' E 118°17'0 0.0
2016-May-26 22:33N 24°25' E 118°17'0 0.0
2016-May-26 21:30N 24°25' E 118°17'0 0.0
2016-May-26 20:33N 24°25' E 118°17'0 0.0
2016-May-26 19:33N 24°25' E 118°17'0 0.0
2016-May-26 18:32N 24°25' E 118°17'0 0.0
2016-May-26 17:33N 24°25' E 118°17'0 0.0
2016-May-26 16:34N 24°25' E 118°17'0 0.0
2016-May-26 15:33N 24°25' E 118°17'0 0.0
2016-May-26 10:31N 24°25' E 118°17'0 0.0
2016-May-26 09:33N 24°25' E 118°17'0 0.0
2016-May-26 08:33N 24°25' E 118°17'0 0.0
2016-May-26 07:33N 24°25' E 118°17'7 7.0
2016-May-26 06:33N 24°31' E 118°13'1 0.7
2016-May-26 05:33N 24°32' E 118°13'8 7.0
2016-May-26 04:27N 24°25' E 118°17'0 0.5
2016-May-26 03:30N 24°25' E 118°17'0 0.0
2016-May-26 02:07N 24°25' E 118°17'1 2.5
2016-May-26 01:33N 24°27' E 118°17'6 6.0
2016-May-26 00:33N 24°31' E 118°13'8 7.4
2016-May-25 23:32N 24°25' E 118°17'0 0.0
2016-May-25 22:33N 24°25' E 118°17'0 0.0
2016-May-25 21:33N 24°25' E 118°17'0 0.0
2016-May-25 20:34N 24°25' E 118°17'0 0.0
2016-May-25 19:33N 24°25' E 118°17'0 0.0
2016-May-25 18:33N 24°25' E 118°17'0 0.0
2016-May-25 17:33N 24°25' E 118°17'0 0.0
2016-May-25 16:33N 24°25' E 118°17'0 0.0
2016-May-25 15:33N 24°25' E 118°17'8 1.6
2016-May-25 10:31N 24°32' E 118°13'8 7.6
2016-May-25 09:29N 24°25' E 118°17'0 0.0
2016-May-25 08:33N 24°25' E 118°17'7 7.1
2016-May-25 07:33N 24°31' E 118°13'1 0.6
2016-May-25 06:33N 24°32' E 118°13'8 7.6
2016-May-25 05:33N 24°25' E 118°17'0 0.5
2016-May-25 04:32N 24°25' E 118°17'0 0.0
2016-May-25 03:31N 24°25' E 118°17'0 0.0
2016-May-25 02:22N 24°25' E 118°17'0 0.0
2016-May-25 01:24N 24°25' E 118°17'0 0.0
2016-May-24 22:27N 24°25' E 118°17'0 0.0
2016-May-24 21:33N 24°25' E 118°17'0 0.0
2016-May-24 20:32N 24°25' E 118°17'0 0.0
2016-May-24 19:33N 24°25' E 118°17'0 0.0
2016-May-24 18:29N 24°25' E 118°17'0 0.0
2016-May-24 16:14N 24°25' E 118°17'0 0.0
2016-May-24 09:31N 24°25' E 118°17'9 8.9
2016-May-24 08:32N 24°32' E 118°11'9 8.8
2016-May-24 07:31N 24°25' E 118°17'0 0.1
2016-May-24 06:33N 24°25' E 118°17'0 0.0
2016-May-24 05:33N 24°25' E 118°17'0 0.0
2016-May-24 04:33N 24°25' E 118°17'0 0.0
2016-May-24 03:33N 24°25' E 118°17'2 2.0
2016-May-24 02:33N 24°27' E 118°17'7 6.6
2016-May-24 01:33N 24°32' E 118°12'8 8.3
2016-May-24 00:33N 24°25' E 118°17'0 0.0
2016-May-23 23:29N 24°25' E 118°17'0 0.0
2016-May-23 22:33N 24°25' E 118°17'0 0.0
2016-May-23 21:32N 24°25' E 118°17'0 0.0
2016-May-23 20:33N 24°25' E 118°17'0 0.0
2016-May-23 19:32N 24°25' E 118°17'0 0.0
2016-May-23 18:33N 24°25' E 118°17'0 0.0
2016-May-23 17:33N 24°25' E 118°17'0 0.0
2016-May-23 16:32N 24°25' E 118°17'0 0.0
2016-May-23 15:33N 24°25' E 118°17'9 1.5
2016-May-23 09:32N 24°32' E 118°11'9 8.4
2016-May-23 08:30N 24°25' E 118°17'0 0.3
2016-May-23 07:33N 24°25' E 118°17'7 6.8
2016-May-23 06:33N 24°31' E 118°14'2 1.9
2016-May-23 05:33N 24°32' E 118°12'9 8.6
2016-May-23 04:33N 24°25' E 118°17'0 0.5
2016-May-23 03:32N 24°25' E 118°17'0 0.0
2016-May-23 02:31N 24°25' E 118°17'0 0.0
2016-May-23 01:30N 24°25' E 118°17'0 0.0
2016-May-23 00:32N 24°25' E 118°17'0 0.0
2016-May-22 23:33N 24°25' E 118°17'0 0.0
2016-May-22 22:31N 24°25' E 118°17'0 0.0
2016-May-22 21:29N 24°25' E 118°17'0 0.0
2016-May-22 20:32N 24°25' E 118°17'0 0.0
2016-May-22 19:33N 24°25' E 118°17'0 0.0
2016-May-22 18:33N 24°25' E 118°17'0 0.0
2016-May-22 17:32N 24°25' E 118°17'0 0.0
2016-May-22 16:32N 24°25' E 118°17'0 0.0
2016-May-22 15:32N 24°25' E 118°17'0 0.0
2016-May-22 14:33N 24°25' E 118°17'0 0.0
2016-May-22 08:25N 24°25' E 118°17'0 0.0
2016-May-22 07:29N 24°25' E 118°17'0 0.0
2016-May-22 06:31N 24°25' E 118°17'7 7.2
2016-May-22 05:34N 24°31' E 118°13'0 0.1
2016-May-22 04:33N 24°31' E 118°13'7 7.2
2016-May-22 03:33N 24°25' E 118°17'0 0.0
2016-May-22 02:31N 24°25' E 118°17'0 0.3
2016-May-22 01:33N 24°25' E 118°17'9 8.8
2016-May-22 00:34N 24°32' E 118°11'9 8.2
2016-May-21 23:27N 24°25' E 118°17'0 0.0
2016-May-21 22:26N 24°25' E 118°17'0 0.0
2016-May-21 21:27N 24°25' E 118°17'0 0.0
2016-May-21 20:10N 24°25' E 118°17'0 0.0
2016-May-21 19:18N 24°25' E 118°17'0 0.0
2016-May-21 18:33N 24°25' E 118°17'0 0.0
2016-May-21 17:33N 24°25' E 118°17'0 0.0
2016-May-21 16:32N 24°25' E 118°17'0 0.0
2016-May-21 15:33N 24°25' E 118°17'0 0.0
2016-May-21 14:34N 24°25' E 118°17'9 2.2
2016-May-21 10:30N 24°32' E 118°11'9 9.2
2016-May-21 09:33N 24°25' E 118°17'0 0.0
2016-May-21 04:33N 24°25' E 118°17'8 7.5
2016-May-21 03:34N 24°32' E 118°13'0 0.3
2016-May-21 02:33N 24°32' E 118°12'8 8.2
2016-May-21 01:33N 24°25' E 118°17'0 0.1
2016-May-21 00:33N 24°25' E 118°17'0 0.0
2016-May-20 23:32N 24°25' E 118°17'0 0.0
2016-May-20 22:33N 24°25' E 118°17'0 0.0
2016-May-20 21:33N 24°25' E 118°17'0 0.0
2016-May-20 20:33N 24°25' E 118°17'0 0.0
2016-May-20 19:33N 24°25' E 118°17'0 0.0
2016-May-20 18:32N 24°25' E 118°17'0 0.0
2016-May-20 17:33N 24°25' E 118°17'0 0.0
2016-May-20 16:33N 24°25' E 118°17'0 0.0
2016-May-20 15:33N 24°25' E 118°17'0 0.0
2016-May-20 14:33N 24°25' E 118°17'2 0.4
2016-May-20 09:33N 24°27' E 118°17'7 7.4
2016-May-20 08:34N 24°32' E 118°11'9 8.6
2016-May-20 07:31N 24°25' E 118°17'0 0.0
2016-May-20 06:33N 24°25' E 118°17'0 0.1
2016-May-20 05:33N 24°25' E 118°17'0 0.0
2016-May-20 04:32N 24°25' E 118°17'0 0.0
2016-May-20 03:31N 24°25' E 118°17'2 2.4
2016-May-20 02:33N 24°27' E 118°17'6 6.5
2016-May-20 01:33N 24°32' E 118°12'8 8.3
2016-May-20 00:33N 24°25' E 118°17'0 0.0
2016-May-19 23:22N 24°25' E 118°17'0 0.0
2016-May-19 22:29N 24°25' E 118°17'0 0.0
2016-May-19 21:33N 24°25' E 118°17'0 0.0
2016-May-19 20:33N 24°25' E 118°17'0 0.0
2016-May-19 18:26N 24°25' E 118°17'0 0.0
2016-May-19 17:30N 24°25' E 118°17'0 0.0
2016-May-19 16:31N 24°25' E 118°17'0 0.0
2016-May-19 15:29N 24°25' E 118°17'  

Dump ship's entire track history